createdAt,value
2022-08-29T00:01:26.681Z,13.60
2022-08-29T00:03:58.360Z,13.60
2022-08-29T00:06:25.752Z,13.60
2022-08-29T00:08:52.751Z,13.60
2022-08-29T00:11:20.115Z,13.60
2022-08-29T00:13:47.314Z,13.50
2022-08-29T00:16:14.359Z,13.50
2022-08-29T00:18:41.385Z,13.40
2022-08-29T00:21:08.536Z,13.40
2022-08-29T00:23:35.313Z,13.40
2022-08-29T00:26:02.284Z,13.30
2022-08-29T00:28:29.148Z,13.40
2022-08-29T00:30:55.931Z,13.30
2022-08-29T00:33:22.872Z,13.30
2022-08-29T00:35:51.232Z,13.30
2022-08-29T00:38:19.338Z,13.20
2022-08-29T00:40:55.083Z,13.20
2022-08-29T00:43:28.780Z,13.20
2022-08-29T00:46:11.166Z,13.20
2022-08-29T00:48:39.735Z,13.20
2022-08-29T00:51:11.719Z,13.20
2022-08-29T00:53:43.010Z,13.20
2022-08-29T00:56:12.807Z,13.10
2022-08-29T00:58:56.607Z,13.10
2022-08-29T01:01:25.204Z,13.10
2022-08-29T01:03:53.333Z,13.10
2022-08-29T01:06:21.696Z,13.00
2022-08-29T01:08:48.746Z,13.00
2022-08-29T01:11:43.738Z,12.90
2022-08-29T01:14:10.794Z,12.90
2022-08-29T01:16:39.857Z,12.90
2022-08-29T01:19:26.203Z,12.90
2022-08-29T01:22:40.953Z,13.00
2022-08-29T01:25:16.339Z,13.00
2022-08-29T01:27:48.088Z,12.90
2022-08-29T01:30:15.265Z,12.90
2022-08-29T01:32:42.575Z,12.90
2022-08-29T01:35:11.451Z,12.90
2022-08-29T01:37:41.082Z,12.90
2022-08-29T01:40:09.029Z,12.90
2022-08-29T01:42:37.462Z,12.90
2022-08-29T01:45:05.936Z,12.90
2022-08-29T01:47:38.801Z,12.90
2022-08-29T01:50:15.834Z,12.90
2022-08-29T01:52:43.608Z,12.90
2022-08-29T01:55:11.268Z,12.90
2022-08-29T01:57:39.945Z,12.80
2022-08-29T02:00:09.661Z,12.80
2022-08-29T02:02:36.870Z,12.80
2022-08-29T02:05:04.425Z,12.70
2022-08-29T02:07:31.384Z,12.70
2022-08-29T02:09:58.154Z,12.60
2022-08-29T02:12:26.251Z,12.60
2022-08-29T02:14:53.132Z,12.60
2022-08-29T02:17:20.062Z,12.60
2022-08-29T02:19:46.917Z,12.60
2022-08-29T02:22:14.444Z,12.50
2022-08-29T02:24:42.657Z,12.50
2022-08-29T02:27:10.387Z,12.50
2022-08-29T02:29:39.881Z,12.50
2022-08-29T02:32:11.983Z,12.50
2022-08-29T02:34:39.561Z,12.40
2022-08-29T02:37:10.408Z,12.50
2022-08-29T02:39:38.051Z,12.40
2022-08-29T02:42:05.210Z,12.40
2022-08-29T02:44:32.003Z,12.40
2022-08-29T02:46:58.829Z,12.30
2022-08-29T02:49:25.676Z,12.40
2022-08-29T02:51:52.477Z,12.30
2022-08-29T02:54:19.397Z,12.20
2022-08-29T02:56:46.216Z,12.20
2022-08-29T02:59:14.268Z,12.20
2022-08-29T03:01:41.112Z,12.10
2022-08-29T03:04:07.980Z,12.10
2022-08-29T03:06:35.893Z,12.10
2022-08-29T03:09:03.408Z,12.10
2022-08-29T03:11:31.054Z,12.10
2022-08-29T03:13:58.126Z,12.10
2022-08-29T03:16:26.191Z,12.10
2022-08-29T03:18:53.181Z,12.00
2022-08-29T03:21:24.955Z,12.00
2022-08-29T03:23:53.119Z,11.90
2022-08-29T03:26:20.546Z,11.80
2022-08-29T03:28:48.217Z,11.80
2022-08-29T03:31:15.214Z,11.80
2022-08-29T03:33:42.231Z,11.80
2022-08-29T03:36:14.068Z,11.70
2022-08-29T03:38:46.310Z,11.70
2022-08-29T03:41:21.225Z,11.80
2022-08-29T03:43:47.978Z,11.80
2022-08-29T03:46:14.767Z,11.70
2022-08-29T03:48:41.836Z,11.80
2022-08-29T03:51:09.516Z,11.70
2022-08-29T03:53:36.340Z,11.70
2022-08-29T03:56:04.698Z,11.80
2022-08-29T03:58:31.552Z,11.70
2022-08-29T04:00:58.995Z,11.80
2022-08-29T04:03:31.174Z,11.80
2022-08-29T04:05:59.175Z,11.80
2022-08-29T04:08:26.051Z,11.80
2022-08-29T04:10:52.836Z,11.70
2022-08-29T04:13:19.603Z,11.60
2022-08-29T04:15:46.415Z,11.60
2022-08-29T04:18:13.384Z,11.60
2022-08-29T04:20:44.915Z,11.60
2022-08-29T04:23:13.220Z,11.60
2022-08-29T04:25:41.461Z,11.60
2022-08-29T04:28:10.948Z,11.60
2022-08-29T04:30:42.049Z,11.60
2022-08-29T04:33:08.916Z,11.60
2022-08-29T04:35:43.063Z,11.60
2022-08-29T04:38:09.994Z,11.60
2022-08-29T04:40:38.456Z,11.60
2022-08-29T04:43:06.313Z,11.60
2022-08-29T04:45:40.455Z,11.60
2022-08-29T04:48:11.491Z,11.60
2022-08-29T04:50:38.981Z,11.50
2022-08-29T04:53:05.817Z,11.60
2022-08-29T04:55:33.064Z,11.50
2022-08-29T04:58:07.366Z,11.50
2022-08-29T05:00:41.209Z,11.50
2022-08-29T05:03:08.339Z,11.50
2022-08-29T05:05:35.200Z,11.60
2022-08-29T05:08:02.073Z,11.70
2022-08-29T05:10:29.124Z,11.70
2022-08-29T05:12:55.921Z,11.70
2022-08-29T05:15:22.882Z,11.70
2022-08-29T05:17:49.683Z,11.80
2022-08-29T05:20:17.041Z,11.80
2022-08-29T05:22:43.894Z,11.80
2022-08-29T05:25:17.568Z,11.90
2022-08-29T05:27:45.867Z,12.00
2022-08-29T05:30:12.751Z,12.10
2022-08-29T05:32:40.706Z,12.10
2022-08-29T05:35:07.869Z,12.20
2022-08-29T05:37:35.027Z,12.20
2022-08-29T05:40:01.991Z,12.40
2022-08-29T05:42:29.549Z,12.40
2022-08-29T05:44:56.810Z,12.50
2022-08-29T05:47:23.750Z,12.60
2022-08-29T05:49:51.152Z,12.70
2022-08-29T05:52:20.874Z,12.80
2022-08-29T05:54:47.685Z,12.90
2022-08-29T05:57:19.197Z,12.90
2022-08-29T05:59:50.040Z,13.00
2022-08-29T06:02:18.265Z,13.10
2022-08-29T06:04:45.958Z,13.20
2022-08-29T06:07:13.571Z,13.30
2022-08-29T06:09:41.501Z,13.40
2022-08-29T06:12:09.513Z,13.60
2022-08-29T06:14:36.897Z,13.70
2022-08-29T06:17:05.869Z,13.80
2022-08-29T06:19:35.047Z,13.90
2022-08-29T06:22:03.417Z,14.00
2022-08-29T06:24:38.061Z,14.10
2022-08-29T06:27:05.117Z,14.20
2022-08-29T06:29:31.858Z,14.20
2022-08-29T06:32:01.480Z,14.30
2022-08-29T06:34:28.276Z,14.40
2022-08-29T06:36:55.047Z,14.50
2022-08-29T06:39:22.022Z,14.50
2022-08-29T06:41:48.943Z,14.60
2022-08-29T06:44:16.100Z,14.70
2022-08-29T06:46:46.431Z,14.80
2022-08-29T06:49:15.546Z,14.80
2022-08-29T06:51:46.687Z,14.90
2022-08-29T06:54:13.767Z,14.90
2022-08-29T06:56:42.351Z,15.20
2022-08-29T06:59:10.348Z,15.50
2022-08-29T07:01:38.045Z,15.50
2022-08-29T07:04:05.454Z,15.60
2022-08-29T07:06:41.289Z,15.80
2022-08-29T07:09:08.405Z,15.90
2022-08-29T07:11:41.100Z,16.00
2022-08-29T07:14:08.914Z,16.10
2022-08-29T07:16:36.573Z,16.10
2022-08-29T07:19:06.346Z,16.10
2022-08-29T07:21:33.616Z,16.10
2022-08-29T07:24:00.580Z,16.10
2022-08-29T07:26:30.640Z,16.20
2022-08-29T07:29:00.898Z,16.30
2022-08-29T07:31:30.940Z,16.40
2022-08-29T07:34:02.661Z,16.50
2022-08-29T07:36:31.094Z,16.70
2022-08-29T07:38:57.921Z,16.80
2022-08-29T07:41:25.469Z,16.80
2022-08-29T07:43:52.685Z,16.90
2022-08-29T07:46:21.209Z,17.00
2022-08-29T07:48:48.321Z,17.00
2022-08-29T07:51:18.655Z,17.00
2022-08-29T07:53:46.848Z,17.10
2022-08-29T07:56:16.892Z,17.20
2022-08-29T07:58:43.770Z,17.40
2022-08-29T08:01:20.746Z,17.60
2022-08-29T08:03:50.034Z,17.80
2022-08-29T08:06:17.797Z,17.90
2022-08-29T08:08:44.582Z,18.00
2022-08-29T08:11:11.347Z,17.90
2022-08-29T08:13:38.794Z,17.90
2022-08-29T08:16:14.032Z,17.90
2022-08-29T08:18:43.351Z,17.90
2022-08-29T08:21:11.984Z,18.00
2022-08-29T08:23:39.088Z,18.20
2022-08-29T08:26:07.123Z,18.30
2022-08-29T08:28:34.371Z,18.40
2022-08-29T08:31:05.991Z,18.50
2022-08-29T08:33:35.207Z,18.70
2022-08-29T08:36:07.104Z,18.80
2022-08-29T08:38:33.903Z,18.90
2022-08-29T08:41:16.953Z,19.00
2022-08-29T08:43:53.521Z,19.00
2022-08-29T08:46:39.276Z,19.00
2022-08-29T08:49:10.403Z,19.00
2022-08-29T08:51:43.263Z,19.00
2022-08-29T08:54:19.095Z,19.00
2022-08-29T08:56:51.675Z,19.00
2022-08-29T08:59:31.550Z,19.10
2022-08-29T09:02:07.356Z,19.30
2022-08-29T09:04:44.153Z,19.30
2022-08-29T09:07:32.239Z,19.20
2022-08-29T09:10:08.415Z,19.10
2022-08-29T09:12:53.506Z,19.10
2022-08-29T09:15:24.192Z,19.00
2022-08-29T09:18:05.996Z,19.00
2022-08-29T09:20:39.438Z,19.00
2022-08-29T09:23:23.045Z,19.10
2022-08-29T09:25:51.288Z,19.20
2022-08-29T09:28:18.185Z,19.30
2022-08-29T09:31:05.664Z,19.30
2022-08-29T09:33:49.945Z,19.30
2022-08-29T09:36:41.019Z,19.40
2022-08-29T09:39:29.610Z,19.90
2022-08-29T09:42:19.533Z,20.00
2022-08-29T09:44:55.949Z,20.20
2022-08-29T09:47:25.417Z,20.10
2022-08-29T09:50:33.511Z,20.20
2022-08-29T09:53:03.541Z,20.30
2022-08-29T09:55:45.401Z,20.60
2022-08-29T09:58:19.099Z,20.80
2022-08-29T10:01:09.810Z,20.90
2022-08-29T10:03:51.623Z,20.80
2022-08-29T10:06:25.248Z,20.60
2022-08-29T10:08:59.948Z,20.60
2022-08-29T10:11:37.589Z,20.60
2022-08-29T10:14:12.682Z,20.60
2022-08-29T10:16:54.111Z,20.60
2022-08-29T10:19:33.185Z,20.60
2022-08-29T10:22:13.978Z,20.60
2022-08-29T10:24:54.272Z,20.60
2022-08-29T10:27:37.290Z,20.50
2022-08-29T10:30:04.935Z,20.50
2022-08-29T10:33:09.492Z,20.50
2022-08-29T10:35:42.356Z,20.40
2022-08-29T10:38:35.265Z,20.40
2022-08-29T10:41:12.560Z,20.50
2022-08-29T10:43:48.535Z,20.50
2022-08-29T10:46:56.775Z,20.60
2022-08-29T10:50:01.027Z,20.80
2022-08-29T10:52:35.635Z,21.00
2022-08-29T10:55:13.333Z,21.10
2022-08-29T10:58:03.146Z,21.30
2022-08-29T11:01:09.060Z,21.30
2022-08-29T11:03:40.446Z,21.60
2022-08-29T11:06:16.719Z,21.70
2022-08-29T11:08:53.498Z,21.80
2022-08-29T11:11:22.758Z,21.90
2022-08-29T11:14:03.541Z,21.90
2022-08-29T11:16:43.304Z,22.00
2022-08-29T11:19:22.559Z,22.20
2022-08-29T11:22:18.160Z,22.40
2022-08-29T11:24:49.687Z,22.70
2022-08-29T11:27:46.594Z,22.80
2022-08-29T11:30:22.192Z,22.70
2022-08-29T11:33:08.889Z,22.60
2022-08-29T11:35:44.887Z,22.50
2022-08-29T11:38:48.994Z,22.70
2022-08-29T11:41:46.474Z,22.50
2022-08-29T11:44:40.301Z,22.60
2022-08-29T11:47:32.013Z,22.70
2022-08-29T11:50:16.858Z,22.60
2022-08-29T11:53:07.871Z,22.70
2022-08-29T11:55:40.374Z,22.70
2022-08-29T11:58:16.193Z,22.80
2022-08-29T12:00:44.659Z,23.00
2022-08-29T12:03:33.384Z,23.00
2022-08-29T12:06:12.375Z,22.90
2022-08-29T12:08:59.746Z,22.80
2022-08-29T12:12:12.626Z,22.70
2022-08-29T12:14:48.816Z,22.70
2022-08-29T12:17:29.028Z,22.50
2022-08-29T12:20:15.224Z,22.50
2022-08-29T12:22:55.793Z,22.50
2022-08-29T12:25:28.476Z,22.50
2022-08-29T12:28:31.154Z,22.50
2022-08-29T12:30:57.983Z,22.40
2022-08-29T12:33:46.667Z,22.50
2022-08-29T12:36:27.813Z,22.40
2022-08-29T12:39:21.976Z,22.60
2022-08-29T12:42:16.402Z,22.60
2022-08-29T12:45:00.531Z,22.60
2022-08-29T12:47:42.842Z,22.70
2022-08-29T12:50:20.881Z,22.70
2022-08-29T12:53:04.968Z,22.70
2022-08-29T12:55:43.454Z,22.70
2022-08-29T12:58:13.544Z,22.70
2022-08-29T13:00:42.216Z,22.50
2022-08-29T13:03:16.349Z,22.50
2022-08-29T13:05:43.994Z,22.50
2022-08-29T13:08:24.957Z,22.40
2022-08-29T13:10:54.964Z,22.50
2022-08-29T13:13:23.895Z,22.50
2022-08-29T13:15:57.189Z,22.50
2022-08-29T13:18:24.152Z,22.60
2022-08-29T13:21:06.603Z,22.60
2022-08-29T13:23:37.473Z,22.50
2022-08-29T13:26:21.552Z,22.40
2022-08-29T13:28:54.979Z,22.40
2022-08-29T13:31:36.291Z,22.40
2022-08-29T13:34:19.330Z,22.30
2022-08-29T13:37:01.322Z,22.30
2022-08-29T13:39:41.369Z,22.40
2022-08-29T13:42:16.201Z,22.40
2022-08-29T13:44:49.147Z,22.40
2022-08-29T13:47:23.847Z,22.40
2022-08-29T13:49:51.378Z,22.40
2022-08-29T13:52:19.333Z,22.50
2022-08-29T13:54:46.171Z,22.60
2022-08-29T13:57:20.248Z,22.60
2022-08-29T13:59:47.728Z,22.60
2022-08-29T14:02:14.997Z,22.50
2022-08-29T14:04:43.664Z,22.50
2022-08-29T14:07:19.291Z,22.60
2022-08-29T14:09:47.030Z,22.50
2022-08-29T14:12:15.196Z,22.60
2022-08-29T14:14:45.532Z,22.70
2022-08-29T14:17:14.273Z,22.70
2022-08-29T14:19:45.688Z,22.70
2022-08-29T14:22:12.546Z,22.70
2022-08-29T14:24:40.777Z,22.70
2022-08-29T14:27:08.371Z,22.70
2022-08-29T14:29:35.794Z,22.70
2022-08-29T14:32:03.534Z,22.70
2022-08-29T14:34:32.458Z,22.70
2022-08-29T14:37:00.879Z,22.60
2022-08-29T14:39:28.233Z,22.60
2022-08-29T14:41:55.544Z,22.60
2022-08-29T14:44:22.771Z,22.60
2022-08-29T14:46:51.052Z,22.60
2022-08-29T14:49:18.496Z,22.60
2022-08-29T14:51:45.489Z,22.60
2022-08-29T14:54:13.061Z,22.60
2022-08-29T14:56:50.076Z,22.60
2022-08-29T14:59:18.859Z,22.50
2022-08-29T15:01:52.654Z,22.50
2022-08-29T15:04:35.457Z,22.40
2022-08-29T15:07:05.815Z,22.40
2022-08-29T15:09:32.925Z,22.30
2022-08-29T15:11:59.763Z,22.30
2022-08-29T15:14:26.539Z,22.40
2022-08-29T15:16:53.380Z,22.50
2022-08-29T15:22:08.963Z,22.50
2022-08-29T15:24:36.152Z,22.40
2022-08-29T15:27:03.828Z,22.30
2022-08-29T15:29:30.690Z,22.30
2022-08-29T15:31:57.838Z,22.40
2022-08-29T15:34:28.604Z,22.40
2022-08-29T15:36:56.558Z,22.40
2022-08-29T15:39:25.400Z,22.50
2022-08-29T15:41:52.158Z,22.60
2022-08-29T15:44:19.276Z,22.60
2022-08-29T15:46:50.362Z,22.70
2022-08-29T15:49:19.177Z,22.80
2022-08-29T15:51:46.537Z,22.80
2022-08-29T15:54:13.792Z,22.80
2022-08-29T15:56:40.644Z,22.80
2022-08-29T15:59:09.364Z,22.80
2022-08-29T16:01:38.797Z,22.80
2022-08-29T16:04:09.437Z,22.80
2022-08-29T16:06:38.851Z,22.70
2022-08-29T16:09:15.278Z,22.60
2022-08-29T16:11:44.931Z,22.50
2022-08-29T16:14:57.504Z,22.40
2022-08-29T16:16:59.454Z,22.30
2022-08-29T16:19:26.285Z,22.20
2022-08-29T16:21:53.964Z,22.10
2022-08-29T16:24:23.004Z,22.00
2022-08-29T16:26:49.805Z,21.90
2022-08-29T16:29:18.136Z,21.90
2022-08-29T16:31:54.036Z,21.80
2022-08-29T16:34:22.846Z,21.80
2022-08-29T16:36:49.796Z,21.70
2022-08-29T16:39:16.615Z,21.70
2022-08-29T16:41:45.304Z,21.80
2022-08-29T16:44:12.175Z,21.90
2022-08-29T16:46:38.949Z,22.00
2022-08-29T16:49:06.003Z,22.00
2022-08-29T16:51:32.771Z,22.10
2022-08-29T16:53:59.681Z,22.10
2022-08-29T16:56:27.296Z,22.00
2022-08-29T16:59:00.378Z,22.00
2022-08-29T17:01:37.494Z,21.90
2022-08-29T17:04:07.898Z,21.90
2022-08-29T17:06:34.897Z,21.80
2022-08-29T17:09:05.293Z,21.80
2022-08-29T17:11:35.079Z,21.70
2022-08-29T17:14:01.913Z,21.70
2022-08-29T17:16:28.783Z,21.70
2022-08-29T17:18:55.672Z,21.60
2022-08-29T17:21:22.591Z,21.60
2022-08-29T17:23:49.876Z,21.60
2022-08-29T17:26:17.476Z,21.60
2022-08-29T17:28:46.519Z,21.60
2022-08-29T17:31:13.989Z,21.60
2022-08-29T17:33:41.701Z,21.50
2022-08-29T17:36:09.744Z,21.50
2022-08-29T17:38:39.273Z,21.50
2022-08-29T17:41:14.703Z,21.40
2022-08-29T17:43:42.635Z,21.40
2022-08-29T17:46:09.721Z,21.30
2022-08-29T17:48:36.794Z,21.20
2022-08-29T17:51:04.179Z,21.10
2022-08-29T17:53:32.503Z,21.00
2022-08-29T17:56:13.328Z,20.90
2022-08-29T17:58:40.408Z,20.90
2022-08-29T18:01:13.582Z,20.90
2022-08-29T18:03:43.090Z,20.80
2022-08-29T18:06:10.223Z,20.70
2022-08-29T18:08:39.084Z,20.60
2022-08-29T18:11:06.061Z,20.50
2022-08-29T18:13:33.924Z,20.40
2022-08-29T18:16:00.833Z,20.40
2022-08-29T18:18:29.148Z,20.20
2022-08-29T18:20:55.900Z,20.20
2022-08-29T18:23:22.716Z,20.10
2022-08-29T18:25:49.755Z,20.00
2022-08-29T18:28:18.019Z,19.90
2022-08-29T18:30:45.028Z,19.90
2022-08-29T18:33:12.951Z,19.80
2022-08-29T18:35:40.414Z,19.70
2022-08-29T18:38:07.984Z,19.70
2022-08-29T18:40:39.317Z,19.60
2022-08-29T18:43:08.105Z,19.50
2022-08-29T18:45:37.690Z,19.40
2022-08-29T18:48:04.937Z,19.40
2022-08-29T18:50:34.471Z,19.30
2022-08-29T18:53:08.840Z,19.30
2022-08-29T18:55:35.825Z,19.10
2022-08-29T18:58:03.286Z,19.10
2022-08-29T19:00:31.781Z,19.00
2022-08-29T19:03:00.221Z,19.00
2022-08-29T19:05:28.795Z,18.90
2022-08-29T19:07:56.144Z,18.90
2022-08-29T19:10:25.939Z,18.80
2022-08-29T19:12:54.559Z,18.80
2022-08-29T19:15:23.126Z,18.70
2022-08-29T19:17:50.122Z,18.70
2022-08-29T19:20:39.453Z,18.60
2022-08-29T19:23:07.401Z,18.60
2022-08-29T19:25:34.826Z,18.60
2022-08-29T19:28:02.547Z,18.50
2022-08-29T19:30:29.780Z,18.50
2022-08-29T19:32:56.556Z,18.40
2022-08-29T19:35:24.436Z,18.40
2022-08-29T19:37:51.984Z,18.40
2022-08-29T19:40:20.675Z,18.40
2022-08-29T19:42:48.773Z,18.40
2022-08-29T19:45:17.418Z,18.30
2022-08-29T19:47:44.201Z,18.30
2022-08-29T19:50:14.019Z,18.30
2022-08-29T19:52:41.448Z,18.20
2022-08-29T19:55:12.436Z,18.20
2022-08-29T19:57:40.087Z,18.20
2022-08-29T20:00:13.846Z,18.20
2022-08-29T20:02:42.593Z,18.10
2022-08-29T20:05:12.451Z,18.10
2022-08-29T20:07:41.149Z,18.00
2022-08-29T20:10:09.870Z,18.00
2022-08-29T20:12:37.038Z,17.90
2022-08-29T20:15:06.011Z,18.00
2022-08-29T20:17:39.521Z,17.90
2022-08-29T20:20:19.148Z,17.90
2022-08-29T20:22:46.738Z,17.90
2022-08-29T20:25:15.725Z,17.90
2022-08-29T20:27:43.651Z,17.90
2022-08-29T20:30:14.770Z,17.90
2022-08-29T20:32:42.415Z,17.90
2022-08-29T20:35:10.646Z,17.90
2022-08-29T20:37:37.467Z,17.90
2022-08-29T20:40:04.944Z,17.90
2022-08-29T20:42:33.332Z,17.80
2022-08-29T20:45:00.383Z,17.80
2022-08-29T20:47:27.338Z,17.80
2022-08-29T20:49:56.137Z,17.80
2022-08-29T20:52:24.335Z,17.80
2022-08-29T20:54:51.568Z,17.90
2022-08-29T20:57:18.496Z,17.80
2022-08-29T20:59:45.426Z,17.90
2022-08-29T21:02:12.555Z,17.90
2022-08-29T21:04:58.072Z,17.80
2022-08-29T21:07:25.875Z,17.90
2022-08-29T21:09:54.137Z,17.80
2022-08-29T21:12:21.485Z,17.80
2022-08-29T21:14:48.474Z,17.80
2022-08-29T21:17:16.239Z,17.90
2022-08-29T21:19:44.671Z,17.80
2022-08-29T21:22:14.079Z,17.80
2022-08-29T21:24:42.081Z,17.80
2022-08-29T21:27:09.407Z,17.80
2022-08-29T21:29:36.215Z,17.70
2022-08-29T21:32:03.289Z,17.70
2022-08-29T21:34:30.110Z,17.70
2022-08-29T21:36:56.882Z,17.70
2022-08-29T21:39:28.953Z,17.70
2022-08-29T21:41:57.094Z,17.70
2022-08-29T21:44:24.009Z,17.60
2022-08-29T21:46:50.875Z,17.60
2022-08-29T21:49:21.623Z,17.50
2022-08-29T21:51:49.373Z,17.50
2022-08-29T21:54:17.327Z,17.50
2022-08-29T21:56:45.571Z,17.50
2022-08-29T21:59:14.021Z,17.40
2022-08-29T22:01:41.815Z,17.40
2022-08-29T22:04:11.602Z,17.40
2022-08-29T22:06:47.176Z,17.30
2022-08-29T22:09:24.590Z,17.30
2022-08-29T22:11:52.440Z,17.20
2022-08-29T22:14:19.337Z,17.20
2022-08-29T22:16:46.655Z,17.10
2022-08-29T22:19:15.931Z,17.10
2022-08-29T22:21:46.338Z,17.10
2022-08-29T22:24:15.222Z,17.00
2022-08-29T22:26:43.528Z,16.90
2022-08-29T22:29:13.700Z,16.90
2022-08-29T22:31:42.309Z,16.90
2022-08-29T22:34:10.636Z,16.90
2022-08-29T22:36:37.448Z,16.80
2022-08-29T22:39:04.939Z,16.80
2022-08-29T22:41:31.756Z,16.80
2022-08-29T22:46:48.162Z,16.80
2022-08-29T22:49:15.048Z,16.80
2022-08-29T22:51:41.840Z,16.70
2022-08-29T22:54:27.294Z,16.70
2022-08-29T22:56:54.908Z,16.70
2022-08-29T22:59:22.140Z,16.60
2022-08-29T23:01:49.046Z,16.60
2022-08-29T23:04:16.166Z,16.60
2022-08-29T23:06:43.408Z,16.60
2022-08-29T23:09:10.622Z,16.60
2022-08-29T23:11:37.793Z,16.60
2022-08-29T23:14:05.749Z,16.50
2022-08-29T23:16:33.570Z,16.50
2022-08-29T23:19:01.717Z,16.50
2022-08-29T23:21:29.847Z,16.50
2022-08-29T23:23:57.746Z,16.50
2022-08-29T23:26:24.928Z,16.50
2022-08-29T23:28:52.462Z,16.50
2022-08-29T23:31:22.294Z,16.40
2022-08-29T23:33:49.590Z,16.40
2022-08-29T23:36:16.700Z,16.30
2022-08-29T23:38:43.916Z,16.30
2022-08-29T23:41:11.618Z,16.30
2022-08-29T23:43:38.398Z,16.30
2022-08-29T23:46:06.201Z,16.20
2022-08-29T23:48:33.658Z,16.30
2022-08-29T23:51:05.346Z,16.20
2022-08-29T23:53:33.447Z,16.10
2022-08-29T23:56:00.361Z,16.10
2022-08-29T23:58:27.344Z,16.10
